VTK601 URMM-ULMM
Flight info
| Callsign | VTK601 |
|---|---|
| Flight time | 3h 31m |
| Altitude | 34000 |
| Route | LARIN5M LARIN G481 NIRGA N82 RINGU N50 LAKEG/K0882F350 N156 OLIRU/K0902F340 N156 GIPEN T747 MOVIT P65 PILAN T693 ASGOR ASGOR2L |
| Aircraft | MD11/H-SDE1E2E3FGHIJ2J3J4J5M1RWXY/LB1D1 |
Departure
| Time | 2026-05-08 12:03 |
|---|---|
| Airport | Mineralnye Vody Airport (URMM) |
Arrival
| Time | 2026-05-08 15:35 |
|---|---|
| Airport | Emperor Nicholas II Murmansk Airport (ULMM) |
| Time | Latitude | Longitude | Altitude | Speed | Heading |
|---|---|---|---|---|---|
| 2026-05-08 11:47 | 44.21763 | 43.09373 | 1058 ft | 0 kts | 212° |
| 2026-05-08 12:00 | 44.21754 | 43.09366 | 1059 ft | 5 kts | 212° |
| 2026-05-08 12:00 | 44.21702 | 43.09349 | 1058 ft | 10 kts | 175° |
| 2026-05-08 12:00 | 44.21637 | 43.09434 | 1058 ft | 16 kts | 126° |
| 2026-05-08 12:01 | 44.21563 | 43.09590 | 1059 ft | 21 kts | 122° |
| 2026-05-08 12:01 | 44.21517 | 43.09796 | 1060 ft | 25 kts | 85° |
| 2026-05-08 12:01 | 44.21559 | 43.10053 | 1058 ft | 29 kts | 76° |
| 2026-05-08 12:01 | 44.21651 | 43.10266 | 1058 ft | 23 kts | 34° |
| 2026-05-08 12:02 | 44.21742 | 43.10331 | 1060 ft | 3 kts | 357° |
| 2026-05-08 12:02 | 44.21752 | 43.10322 | 1059 ft | 2 kts | 329° |
| 2026-05-08 12:02 | 44.21778 | 43.10281 | 1061 ft | 10 kts | 306° |
| 2026-05-08 12:02 | 44.21889 | 43.10042 | 1060 ft | 63 kts | 302° |
| 2026-05-08 12:03 | 44.22251 | 43.09238 | 1062 ft | 131 kts | 302° |
| 2026-05-08 12:03 | 44.22841 | 43.07945 | 1076 ft | 180 kts | 302° |
| 2026-05-08 12:03 | 44.23519 | 43.06431 | 1573 ft | 187 kts | 301° |
| 2026-05-08 12:03 | 44.24191 | 43.04907 | 2566 ft | 178 kts | 301° |
| 2026-05-08 12:04 | 44.24840 | 43.03471 | 3753 ft | 176 kts | 302° |
| 2026-05-08 12:04 | 44.25509 | 43.01985 | 4542 ft | 193 kts | 303° |
| 2026-05-08 12:04 | 44.26277 | 43.00294 | 4718 ft | 220 kts | 303° |
| 2026-05-08 12:04 | 44.27149 | 42.98378 | 4879 ft | 248 kts | 303° |
| 2026-05-08 12:05 | 44.28083 | 42.96317 | 5621 ft | 253 kts | 303° |
| 2026-05-08 12:05 | 44.29030 | 42.94225 | 6438 ft | 257 kts | 303° |
| 2026-05-08 12:05 | 44.30154 | 42.92222 | 6979 ft | 272 kts | 317° |
| 2026-05-08 12:05 | 44.31800 | 42.90857 | 7495 ft | 280 kts | 344° |
| 2026-05-08 12:06 | 44.33729 | 42.90661 | 8335 ft | 281 kts | 8° |
| 2026-05-08 12:06 | 44.35646 | 42.91274 | 9062 ft | 284 kts | 15° |
| 2026-05-08 12:06 | 44.37539 | 42.92094 | 9857 ft | 286 kts | 18° |
| 2026-05-08 12:06 | 44.39460 | 42.92980 | 10314 ft | 299 kts | 17° |
| 2026-05-08 12:07 | 44.41501 | 42.93907 | 10453 ft | 325 kts | 17° |
| 2026-05-08 12:07 | 44.43738 | 42.94894 | 10708 ft | 344 kts | 17° |
| 2026-05-08 12:07 | 44.46025 | 42.95884 | 11384 ft | 346 kts | 17° |
| 2026-05-08 12:07 | 44.48345 | 42.96880 | 12081 ft | 351 kts | 17° |
| 2026-05-08 12:08 | 44.50696 | 42.97888 | 12756 ft | 355 kts | 17° |
| 2026-05-08 12:08 | 44.53069 | 42.98907 | 13514 ft | 358 kts | 18° |
| 2026-05-08 12:08 | 44.55452 | 42.99935 | 14212 ft | 361 kts | 18° |
| 2026-05-08 12:08 | 44.57867 | 43.00978 | 14768 ft | 366 kts | 18° |
| 2026-05-08 12:09 | 44.60278 | 43.02169 | 15346 ft | 368 kts | 24° |
| 2026-05-08 12:09 | 44.62581 | 43.03768 | 15945 ft | 369 kts | 29° |
| 2026-05-08 12:09 | 44.64830 | 43.05554 | 16487 ft | 374 kts | 30° |
| 2026-05-08 12:09 | 44.67086 | 43.07422 | 17005 ft | 378 kts | 31° |
| 2026-05-08 12:10 | 44.69350 | 43.09309 | 17635 ft | 379 kts | 31° |
| 2026-05-08 12:10 | 44.71636 | 43.11206 | 18173 ft | 383 kts | 31° |
| 2026-05-08 12:10 | 44.73947 | 43.13113 | 18651 ft | 387 kts | 31° |
| 2026-05-08 12:10 | 44.76273 | 43.15027 | 19153 ft | 388 kts | 30° |
| 2026-05-08 12:11 | 44.78585 | 43.16923 | 19590 ft | 391 kts | 30° |
| 2026-05-08 12:11 | 44.80951 | 43.18862 | 19998 ft | 395 kts | 30° |
| 2026-05-08 12:11 | 44.83329 | 43.20813 | 20465 ft | 396 kts | 31° |
| 2026-05-08 12:11 | 44.85721 | 43.22773 | 20912 ft | 399 kts | 30° |
| 2026-05-08 12:12 | 44.88134 | 43.24752 | 21309 ft | 403 kts | 30° |
| 2026-05-08 12:12 | 44.90560 | 43.26744 | 21810 ft | 404 kts | 31° |
| 2026-05-08 12:12 | 44.92997 | 43.28748 | 22244 ft | 407 kts | 30° |
| 2026-05-08 12:12 | 44.95460 | 43.30777 | 22664 ft | 411 kts | 30° |
| 2026-05-08 12:13 | 44.97973 | 43.32710 | 23109 ft | 412 kts | 23° |
| 2026-05-08 12:13 | 45.00734 | 43.33832 | 23576 ft | 416 kts | 9° |
| 2026-05-08 12:13 | 45.03643 | 43.34138 | 23898 ft | 422 kts | 2° |
| 2026-05-08 12:13 | 45.06584 | 43.34115 | 24305 ft | 424 kts | 0° |
| 2026-05-08 12:14 | 45.09541 | 43.34047 | 24770 ft | 425 kts | 1° |
| 2026-05-08 12:14 | 45.12513 | 43.34028 | 25118 ft | 429 kts | 1° |
| 2026-05-08 12:14 | 45.15510 | 43.34075 | 25462 ft | 434 kts | 2° |
| 2026-05-08 12:14 | 45.18518 | 43.34171 | 25917 ft | 434 kts | 2° |
| 2026-05-08 12:15 | 45.21552 | 43.34300 | 26319 ft | 437 kts | 3° |
| 2026-05-08 12:15 | 45.24600 | 43.34447 | 26682 ft | 441 kts | 3° |
| 2026-05-08 12:15 | 45.27680 | 43.34602 | 27041 ft | 444 kts | 3° |
| 2026-05-08 12:15 | 45.30785 | 43.34548 | 27376 ft | 448 kts | 356° |
| 2026-05-08 12:16 | 45.33844 | 43.33949 | 27750 ft | 452 kts | 351° |
| 2026-05-08 12:16 | 45.36931 | 43.33039 | 28153 ft | 454 kts | 349° |
| 2026-05-08 12:16 | 45.40027 | 43.32010 | 28472 ft | 459 kts | 348° |
| 2026-05-08 12:16 | 45.43138 | 43.30955 | 28846 ft | 461 kts | 348° |
| 2026-05-08 12:17 | 45.46273 | 43.29914 | 29154 ft | 465 kts | 348° |
| 2026-05-08 12:17 | 45.49438 | 43.28892 | 29520 ft | 468 kts | 348° |
| 2026-05-08 12:17 | 45.52621 | 43.27887 | 29850 ft | 470 kts | 349° |
| 2026-05-08 12:17 | 45.55813 | 43.26893 | 30291 ft | 469 kts | 349° |
| 2026-05-08 12:18 | 45.59007 | 43.25903 | 30633 ft | 470 kts | 349° |
| 2026-05-08 12:18 | 45.62207 | 43.24911 | 30924 ft | 471 kts | 349° |
| 2026-05-08 12:18 | 45.65409 | 43.23918 | 31257 ft | 471 kts | 348° |
| 2026-05-08 12:18 | 45.68609 | 43.22924 | 31599 ft | 471 kts | 349° |
| 2026-05-08 12:19 | 45.71803 | 43.21929 | 32017 ft | 468 kts | 349° |
| 2026-05-08 12:19 | 45.74985 | 43.20957 | 32393 ft | 466 kts | 349° |
| 2026-05-08 12:19 | 45.78162 | 43.20020 | 32725 ft | 466 kts | 349° |
| 2026-05-08 12:19 | 45.81336 | 43.19100 | 33017 ft | 465 kts | 350° |
| 2026-05-08 12:20 | 45.84512 | 43.18187 | 33326 ft | 465 kts | 349° |
| 2026-05-08 12:20 | 45.87690 | 43.17274 | 33588 ft | 465 kts | 350° |
| 2026-05-08 12:20 | 45.90857 | 43.16361 | 33937 ft | 463 kts | 349° |
| 2026-05-08 12:20 | 45.94023 | 43.15445 | 34048 ft | 464 kts | 350° |
| 2026-05-08 12:21 | 46.00359 | 43.13608 | 34075 ft | 466 kts | 349° |
| 2026-05-08 12:21 | 46.06721 | 43.11755 | 34070 ft | 467 kts | 349° |
| 2026-05-08 12:22 | 46.13076 | 43.09898 | 34072 ft | 466 kts | 349° |
| 2026-05-08 12:22 | 46.19421 | 43.08042 | 34065 ft | 466 kts | 349° |
| 2026-05-08 12:23 | 46.25781 | 43.06181 | 34068 ft | 467 kts | 349° |
| 2026-05-08 12:23 | 46.32140 | 43.04321 | 34062 ft | 466 kts | 350° |
| 2026-05-08 12:24 | 46.38490 | 43.02467 | 34061 ft | 466 kts | 350° |
| 2026-05-08 12:24 | 46.44849 | 43.00607 | 34055 ft | 467 kts | 349° |
| 2026-05-08 12:25 | 46.50132 | 42.99056 | 34058 ft | 466 kts | 349° |
| 2026-05-08 12:25 | 46.56478 | 42.97189 | 34054 ft | 466 kts | 349° |
| 2026-05-08 12:26 | 46.62841 | 42.95313 | 34056 ft | 467 kts | 349° |
| 2026-05-08 12:26 | 46.69201 | 42.93434 | 34050 ft | 467 kts | 349° |
| 2026-05-08 12:27 | 46.75551 | 42.91553 | 34046 ft | 466 kts | 349° |
| 2026-05-08 12:27 | 46.81912 | 42.89666 | 34046 ft | 467 kts | 349° |
| 2026-05-08 12:28 | 46.88273 | 42.87772 | 34041 ft | 466 kts | 349° |
| 2026-05-08 12:28 | 46.94629 | 42.85875 | 34036 ft | 465 kts | 349° |
| 2026-05-08 12:29 | 47.00981 | 42.83975 | 34037 ft | 466 kts | 349° |
| 2026-05-08 12:29 | 47.07336 | 42.82060 | 34031 ft | 466 kts | 349° |
| 2026-05-08 12:30 | 47.13671 | 42.80147 | 34036 ft | 465 kts | 349° |
| 2026-05-08 12:30 | 47.20010 | 42.78237 | 34031 ft | 465 kts | 349° |
| 2026-05-08 12:31 | 47.26352 | 42.76330 | 34029 ft | 465 kts | 349° |
| 2026-05-08 12:31 | 47.32680 | 42.74422 | 34025 ft | 463 kts | 349° |
| 2026-05-08 12:32 | 47.38997 | 42.72511 | 34025 ft | 463 kts | 349° |
| 2026-05-08 12:32 | 47.45279 | 42.70608 | 34025 ft | 463 kts | 349° |
| 2026-05-08 12:33 | 47.51595 | 42.68692 | 34026 ft | 463 kts | 349° |
| 2026-05-08 12:33 | 47.57914 | 42.66776 | 34024 ft | 464 kts | 349° |
| 2026-05-08 12:34 | 47.64241 | 42.64855 | 34022 ft | 464 kts | 349° |
| 2026-05-08 12:34 | 47.70562 | 42.62924 | 34020 ft | 463 kts | 349° |
| 2026-05-08 12:35 | 47.76883 | 42.60996 | 34020 ft | 464 kts | 349° |
| 2026-05-08 12:35 | 47.83209 | 42.59056 | 34022 ft | 464 kts | 349° |
| 2026-05-08 12:36 | 47.89526 | 42.57115 | 34019 ft | 463 kts | 349° |
| 2026-05-08 12:36 | 47.95840 | 42.55170 | 34017 ft | 463 kts | 349° |
| 2026-05-08 12:37 | 48.02165 | 42.53217 | 34018 ft | 464 kts | 349° |
| 2026-05-08 12:37 | 48.08482 | 42.51265 | 34012 ft | 463 kts | 349° |
| 2026-05-08 12:38 | 48.14799 | 42.49306 | 34014 ft | 464 kts | 349° |
| 2026-05-08 12:38 | 48.21126 | 42.47338 | 34014 ft | 465 kts | 349° |
| 2026-05-08 12:39 | 48.27386 | 42.44986 | 34011 ft | 464 kts | 344° |
| 2026-05-08 12:39 | 48.33566 | 42.42155 | 34009 ft | 464 kts | 343° |
| 2026-05-08 12:40 | 48.39741 | 42.39279 | 34004 ft | 465 kts | 343° |
| 2026-05-08 12:40 | 48.45934 | 42.36431 | 34007 ft | 465 kts | 343° |
| 2026-05-08 12:41 | 48.52128 | 42.33594 | 34004 ft | 465 kts | 343° |
| 2026-05-08 12:41 | 48.58286 | 42.30769 | 34005 ft | 465 kts | 343° |
| 2026-05-08 12:42 | 48.64470 | 42.27921 | 34003 ft | 465 kts | 343° |
| 2026-05-08 12:42 | 48.70663 | 42.25070 | 34001 ft | 465 kts | 343° |
| 2026-05-08 12:43 | 48.76853 | 42.22218 | 33998 ft | 465 kts | 343° |
| 2026-05-08 12:43 | 48.83037 | 42.19363 | 33998 ft | 465 kts | 343° |
| 2026-05-08 12:44 | 48.89227 | 42.16500 | 33994 ft | 466 kts | 343° |
| 2026-05-08 12:44 | 48.95413 | 42.13626 | 33996 ft | 466 kts | 343° |
| 2026-05-08 12:45 | 49.01614 | 42.10741 | 33996 ft | 466 kts | 343° |
| 2026-05-08 12:45 | 49.07914 | 42.08489 | 33994 ft | 465 kts | 351° |
| 2026-05-08 12:46 | 49.14320 | 42.07128 | 33989 ft | 465 kts | 353° |
| 2026-05-08 12:46 | 49.20739 | 42.05857 | 33988 ft | 465 kts | 353° |
| 2026-05-08 12:47 | 49.27144 | 42.04516 | 33983 ft | 465 kts | 352° |
| 2026-05-08 12:47 | 49.33552 | 42.03134 | 33984 ft | 465 kts | 352° |
| 2026-05-08 12:48 | 49.39961 | 42.01742 | 33981 ft | 465 kts | 352° |
| 2026-05-08 12:48 | 49.46360 | 42.00349 | 33978 ft | 465 kts | 352° |
| 2026-05-08 12:49 | 49.52772 | 41.98951 | 33974 ft | 465 kts | 352° |
| 2026-05-08 12:49 | 49.59166 | 41.97553 | 33982 ft | 464 kts | 352° |
| 2026-05-08 12:50 | 49.65564 | 41.96155 | 33984 ft | 465 kts | 352° |
| 2026-05-08 12:50 | 49.71973 | 41.94747 | 33980 ft | 465 kts | 352° |
| 2026-05-08 12:51 | 49.81562 | 41.92634 | 33978 ft | 465 kts | 352° |
| 2026-05-08 12:52 | 49.87971 | 41.91215 | 33977 ft | 465 kts | 352° |
| 2026-05-08 12:52 | 49.97563 | 41.89073 | 33980 ft | 464 kts | 352° |
| 2026-05-08 12:53 | 50.03969 | 41.87645 | 33977 ft | 465 kts | 352° |
| 2026-05-08 12:53 | 50.10355 | 41.86219 | 33976 ft | 462 kts | 352° |
| 2026-05-08 12:54 | 50.16734 | 41.84794 | 33977 ft | 464 kts | 352° |
| 2026-05-08 12:54 | 50.23102 | 41.83093 | 33974 ft | 464 kts | 348° |
| 2026-05-08 12:55 | 50.29401 | 41.80935 | 33984 ft | 461 kts | 347° |
| 2026-05-08 12:55 | 50.35671 | 41.78728 | 33974 ft | 462 kts | 348° |
| 2026-05-08 12:56 | 50.41968 | 41.76542 | 33975 ft | 464 kts | 348° |
| 2026-05-08 12:56 | 50.48257 | 41.74373 | 33980 ft | 462 kts | 348° |
| 2026-05-08 12:57 | 50.54535 | 41.72203 | 33988 ft | 463 kts | 348° |
| 2026-05-08 12:57 | 50.60829 | 41.70022 | 33971 ft | 464 kts | 348° |
| 2026-05-08 12:58 | 50.67112 | 41.67836 | 33974 ft | 462 kts | 348° |
| 2026-05-08 12:58 | 50.73359 | 41.65645 | 33976 ft | 460 kts | 348° |
| 2026-05-08 12:59 | 50.79619 | 41.63450 | 33971 ft | 461 kts | 348° |
| 2026-05-08 12:59 | 50.85878 | 41.61254 | 33989 ft | 461 kts | 348° |
| 2026-05-08 13:00 | 50.92130 | 41.59053 | 33982 ft | 458 kts | 348° |
| 2026-05-08 13:00 | 50.98372 | 41.56851 | 33986 ft | 460 kts | 348° |
| 2026-05-08 13:01 | 51.04640 | 41.54635 | 33982 ft | 461 kts | 348° |
| 2026-05-08 13:01 | 51.10901 | 41.52413 | 33981 ft | 460 kts | 348° |
| 2026-05-08 13:02 | 51.17142 | 41.50192 | 33982 ft | 461 kts | 348° |
| 2026-05-08 13:02 | 51.23409 | 41.47955 | 33985 ft | 463 kts | 348° |
| 2026-05-08 13:03 | 51.29689 | 41.45708 | 33990 ft | 462 kts | 348° |
| 2026-05-08 13:03 | 51.35943 | 41.43464 | 33983 ft | 460 kts | 348° |
| 2026-05-08 13:04 | 51.42201 | 41.41212 | 33988 ft | 462 kts | 348° |
| 2026-05-08 13:04 | 51.48465 | 41.38948 | 33978 ft | 461 kts | 348° |
| 2026-05-08 13:05 | 51.54713 | 41.36671 | 33986 ft | 458 kts | 348° |
| 2026-05-08 13:05 | 51.60961 | 41.34394 | 33986 ft | 460 kts | 347° |
| 2026-05-08 13:06 | 51.67150 | 41.31905 | 33984 ft | 462 kts | 341° |
| 2026-05-08 13:06 | 51.71917 | 41.27931 | 33986 ft | 463 kts | 326° |
| 2026-05-08 13:07 | 51.77099 | 41.21719 | 33988 ft | 465 kts | 323° |
| 2026-05-08 13:07 | 51.83103 | 41.14436 | 33995 ft | 464 kts | 324° |
| 2026-05-08 13:08 | 51.87496 | 41.09315 | 33988 ft | 464 kts | 325° |
| 2026-05-08 13:08 | 51.92742 | 41.03274 | 33999 ft | 460 kts | 326° |
| 2026-05-08 13:09 | 51.97946 | 40.97277 | 33994 ft | 458 kts | 325° |
| 2026-05-08 13:09 | 52.03136 | 40.91327 | 33997 ft | 458 kts | 327° |
| 2026-05-08 13:10 | 52.08597 | 40.85949 | 33988 ft | 459 kts | 330° |
| 2026-05-08 13:10 | 52.14155 | 40.80896 | 33992 ft | 456 kts | 331° |
| 2026-05-08 13:11 | 52.19696 | 40.75846 | 33996 ft | 459 kts | 330° |
| 2026-05-08 13:11 | 52.25281 | 40.70699 | 33987 ft | 461 kts | 330° |
| 2026-05-08 13:12 | 52.30834 | 40.65545 | 33993 ft | 459 kts | 330° |
| 2026-05-08 13:12 | 52.36392 | 40.60364 | 33984 ft | 462 kts | 330° |
| 2026-05-08 13:13 | 52.41991 | 40.55125 | 33993 ft | 464 kts | 330° |
| 2026-05-08 13:13 | 52.47587 | 40.49889 | 33981 ft | 461 kts | 329° |
| 2026-05-08 13:14 | 52.53155 | 40.44683 | 33999 ft | 459 kts | 329° |
| 2026-05-08 13:14 | 52.58703 | 40.39496 | 33995 ft | 462 kts | 329° |
| 2026-05-08 13:15 | 52.64290 | 40.34266 | 33986 ft | 460 kts | 329° |
| 2026-05-08 13:15 | 52.69831 | 40.29068 | 34003 ft | 460 kts | 329° |
| 2026-05-08 13:16 | 52.75396 | 40.23835 | 33988 ft | 461 kts | 329° |
| 2026-05-08 13:16 | 52.80957 | 40.18584 | 33993 ft | 462 kts | 329° |
| 2026-05-08 13:17 | 52.86536 | 40.13275 | 33992 ft | 461 kts | 328° |
| 2026-05-08 13:17 | 52.92078 | 40.07981 | 33995 ft | 460 kts | 328° |
| 2026-05-08 13:18 | 52.97649 | 40.02655 | 33991 ft | 462 kts | 328° |
| 2026-05-08 13:18 | 53.03228 | 39.97313 | 33993 ft | 464 kts | 328° |
| 2026-05-08 13:19 | 53.08827 | 39.91944 | 33992 ft | 464 kts | 328° |
| 2026-05-08 13:19 | 53.14385 | 39.86581 | 33993 ft | 461 kts | 328° |
| 2026-05-08 13:20 | 53.19945 | 39.81205 | 33990 ft | 463 kts | 328° |
| 2026-05-08 13:20 | 53.25518 | 39.75812 | 33995 ft | 463 kts | 328° |
| 2026-05-08 13:21 | 53.31074 | 39.70417 | 33991 ft | 461 kts | 328° |
| 2026-05-08 13:21 | 53.36623 | 39.65004 | 33991 ft | 462 kts | 328° |
| 2026-05-08 13:22 | 53.42250 | 39.59760 | 33997 ft | 463 kts | 330° |
| 2026-05-08 13:22 | 53.47992 | 39.54868 | 33998 ft | 463 kts | 331° |
| 2026-05-08 13:23 | 53.53750 | 39.50031 | 33994 ft | 463 kts | 331° |
| 2026-05-08 13:23 | 53.59505 | 39.45158 | 33999 ft | 463 kts | 331° |
| 2026-05-08 13:24 | 53.65251 | 39.40257 | 33999 ft | 463 kts | 331° |
| 2026-05-08 13:24 | 53.70990 | 39.35341 | 34005 ft | 461 kts | 331° |
| 2026-05-08 13:25 | 53.76706 | 39.30434 | 34004 ft | 461 kts | 331° |
| 2026-05-08 13:25 | 53.82415 | 39.25517 | 34008 ft | 460 kts | 330° |
| 2026-05-08 13:26 | 53.88114 | 39.20583 | 34010 ft | 460 kts | 330° |
| 2026-05-08 13:26 | 53.93811 | 39.15612 | 34016 ft | 460 kts | 330° |
| 2026-05-08 13:27 | 53.99498 | 39.10650 | 34015 ft | 460 kts | 330° |
| 2026-05-08 13:27 | 54.05190 | 39.05678 | 34014 ft | 460 kts | 330° |
| 2026-05-08 13:28 | 54.10878 | 39.00697 | 34026 ft | 460 kts | 330° |
| 2026-05-08 13:28 | 54.16567 | 38.95698 | 34025 ft | 460 kts | 330° |
| 2026-05-08 13:29 | 54.22239 | 38.90670 | 34033 ft | 458 kts | 328° |
| 2026-05-08 13:29 | 54.27281 | 38.84279 | 34030 ft | 454 kts | 316° |
| 2026-05-08 13:30 | 54.31896 | 38.76885 | 34042 ft | 454 kts | 314° |
| 2026-05-08 13:30 | 54.36500 | 38.69444 | 34039 ft | 455 kts | 315° |
| 2026-05-08 13:31 | 54.41146 | 38.62070 | 34052 ft | 455 kts | 315° |
| 2026-05-08 13:31 | 54.45827 | 38.54695 | 34049 ft | 458 kts | 315° |
| 2026-05-08 13:32 | 54.50532 | 38.47268 | 34047 ft | 459 kts | 315° |
| 2026-05-08 13:32 | 54.55225 | 38.39832 | 34051 ft | 459 kts | 315° |
| 2026-05-08 13:33 | 54.59916 | 38.32373 | 34051 ft | 459 kts | 314° |
| 2026-05-08 13:33 | 54.64602 | 38.24890 | 34067 ft | 460 kts | 314° |
| 2026-05-08 13:34 | 54.69289 | 38.17380 | 34061 ft | 459 kts | 314° |
| 2026-05-08 13:34 | 54.73958 | 38.09835 | 34066 ft | 459 kts | 314° |
| 2026-05-08 13:35 | 54.78619 | 38.02254 | 34071 ft | 460 kts | 314° |
| 2026-05-08 13:35 | 54.83279 | 37.94682 | 34089 ft | 459 kts | 313° |
| 2026-05-08 13:36 | 54.87938 | 37.87113 | 34082 ft | 458 kts | 313° |
| 2026-05-08 13:36 | 54.92588 | 37.79533 | 34082 ft | 458 kts | 313° |
| 2026-05-08 13:37 | 54.97231 | 37.71934 | 34090 ft | 458 kts | 313° |
| 2026-05-08 13:37 | 55.01877 | 37.64323 | 34088 ft | 458 kts | 314° |
| 2026-05-08 13:38 | 55.06974 | 37.57584 | 34094 ft | 464 kts | 326° |
| 2026-05-08 13:38 | 55.13031 | 37.53555 | 34099 ft | 471 kts | 343° |
| 2026-05-08 13:39 | 55.19640 | 37.52834 | 34111 ft | 483 kts | 0° |
| 2026-05-08 13:39 | 55.26303 | 37.54818 | 34115 ft | 489 kts | 7° |
| 2026-05-08 13:40 | 55.32943 | 37.57412 | 34119 ft | 489 kts | 7° |
| 2026-05-08 13:40 | 55.39594 | 37.59866 | 34147 ft | 488 kts | 7° |
| 2026-05-08 13:41 | 55.46247 | 37.62189 | 34124 ft | 487 kts | 6° |
| 2026-05-08 13:41 | 55.52898 | 37.64493 | 34126 ft | 487 kts | 5° |
| 2026-05-08 13:42 | 55.59548 | 37.66805 | 34127 ft | 487 kts | 5° |
| 2026-05-08 13:42 | 55.66208 | 37.68967 | 34132 ft | 485 kts | 2° |
| 2026-05-08 13:43 | 55.72883 | 37.70499 | 34129 ft | 483 kts | 1° |
| 2026-05-08 13:43 | 55.79557 | 37.71862 | 34140 ft | 483 kts | 1° |
| 2026-05-08 13:44 | 55.86232 | 37.73263 | 34140 ft | 483 kts | 1° |
| 2026-05-08 13:44 | 55.92897 | 37.74701 | 34140 ft | 483 kts | 1° |
| 2026-05-08 13:45 | 55.99572 | 37.76155 | 34185 ft | 484 kts | 0° |
| 2026-05-08 13:45 | 56.06168 | 37.77605 | 34147 ft | 479 kts | 0° |
| 2026-05-08 13:46 | 56.12782 | 37.79051 | 34148 ft | 479 kts | 0° |
| 2026-05-08 13:46 | 56.19399 | 37.80499 | 34151 ft | 479 kts | 0° |
| 2026-05-08 13:47 | 56.24940 | 37.81716 | 34154 ft | 479 kts | 0° |
| 2026-05-08 13:47 | 56.32625 | 37.83412 | 34164 ft | 479 kts | 0° |
| 2026-05-08 13:48 | 56.38166 | 37.84641 | 34157 ft | 479 kts | 0° |
| 2026-05-08 13:48 | 56.44775 | 37.86107 | 34157 ft | 479 kts | 0° |
| 2026-05-08 13:49 | 56.51394 | 37.87585 | 34160 ft | 479 kts | 360° |
| 2026-05-08 13:49 | 56.58012 | 37.89066 | 34165 ft | 479 kts | 360° |
| 2026-05-08 13:50 | 56.64631 | 37.90556 | 34170 ft | 480 kts | 359° |
| 2026-05-08 13:50 | 56.71257 | 37.92050 | 34164 ft | 480 kts | 359° |
| 2026-05-08 13:51 | 56.77892 | 37.93552 | 34159 ft | 480 kts | 359° |
| 2026-05-08 13:51 | 56.84524 | 37.95067 | 34160 ft | 480 kts | 359° |
| 2026-05-08 13:52 | 56.91155 | 37.96588 | 34162 ft | 480 kts | 359° |
| 2026-05-08 13:52 | 56.97796 | 37.98114 | 34173 ft | 481 kts | 359° |
| 2026-05-08 13:53 | 57.04439 | 37.99581 | 34167 ft | 480 kts | 358° |
| 2026-05-08 13:53 | 57.11072 | 38.00703 | 34161 ft | 478 kts | 356° |
| 2026-05-08 13:54 | 57.17700 | 38.01712 | 34162 ft | 478 kts | 356° |
| 2026-05-08 13:54 | 57.24331 | 38.02738 | 34163 ft | 478 kts | 356° |
| 2026-05-08 13:55 | 57.30944 | 38.03785 | 34169 ft | 476 kts | 356° |
| 2026-05-08 13:56 | 57.40848 | 38.05363 | 34159 ft | 476 kts | 356° |
| 2026-05-08 13:56 | 57.47450 | 38.06421 | 34159 ft | 476 kts | 356° |
| 2026-05-08 13:57 | 57.54050 | 38.07484 | 34157 ft | 476 kts | 356° |
| 2026-05-08 13:57 | 57.60654 | 38.08552 | 34167 ft | 475 kts | 355° |
| 2026-05-08 13:58 | 57.67235 | 38.09621 | 34158 ft | 475 kts | 355° |
| 2026-05-08 13:58 | 57.73822 | 38.10687 | 34158 ft | 475 kts | 355° |
| 2026-05-08 13:59 | 57.80401 | 38.11760 | 34153 ft | 475 kts | 355° |
| 2026-05-08 13:59 | 57.86983 | 38.12846 | 34155 ft | 475 kts | 355° |
| 2026-05-08 14:00 | 57.93551 | 38.13942 | 34171 ft | 474 kts | 355° |
| 2026-05-08 14:00 | 58.00118 | 38.15034 | 34161 ft | 474 kts | 355° |
| 2026-05-08 14:01 | 58.06731 | 38.16136 | 34166 ft | 474 kts | 356° |
| 2026-05-08 14:01 | 58.13297 | 38.17235 | 34147 ft | 474 kts | 356° |
| 2026-05-08 14:02 | 58.19823 | 38.18328 | 34155 ft | 474 kts | 356° |
| 2026-05-08 14:02 | 58.26388 | 38.19431 | 34162 ft | 473 kts | 356° |
| 2026-05-08 14:03 | 58.32945 | 38.20540 | 34148 ft | 473 kts | 356° |
| 2026-05-08 14:03 | 58.39497 | 38.21657 | 34149 ft | 473 kts | 356° |
| 2026-05-08 14:04 | 58.46052 | 38.22770 | 34158 ft | 473 kts | 356° |
| 2026-05-08 14:04 | 58.52580 | 38.23889 | 34143 ft | 471 kts | 356° |
| 2026-05-08 14:05 | 58.59111 | 38.25002 | 34157 ft | 471 kts | 356° |
| 2026-05-08 14:05 | 58.65632 | 38.26126 | 34141 ft | 471 kts | 356° |
| 2026-05-08 14:06 | 58.72132 | 38.26815 | 34139 ft | 464 kts | 351° |
| 2026-05-08 14:06 | 58.78567 | 38.26624 | 34135 ft | 462 kts | 349° |
| 2026-05-08 14:07 | 58.84991 | 38.26303 | 34136 ft | 462 kts | 349° |
| 2026-05-08 14:07 | 58.91423 | 38.26038 | 34135 ft | 462 kts | 350° |
| 2026-05-08 14:08 | 58.97830 | 38.25812 | 34137 ft | 459 kts | 349° |
| 2026-05-08 14:08 | 59.04219 | 38.25587 | 34129 ft | 459 kts | 349° |
| 2026-05-08 14:09 | 59.10608 | 38.25363 | 34133 ft | 459 kts | 349° |
| 2026-05-08 14:09 | 59.16996 | 38.25139 | 34130 ft | 459 kts | 349° |
| 2026-05-08 14:10 | 59.23385 | 38.24911 | 34129 ft | 459 kts | 349° |
| 2026-05-08 14:10 | 59.29771 | 38.24682 | 34141 ft | 459 kts | 349° |
| 2026-05-08 14:11 | 59.36164 | 38.24453 | 34166 ft | 459 kts | 349° |
| 2026-05-08 14:11 | 59.42536 | 38.24227 | 34134 ft | 457 kts | 349° |
| 2026-05-08 14:12 | 59.48898 | 38.23996 | 34130 ft | 457 kts | 349° |
| 2026-05-08 14:12 | 59.55254 | 38.23769 | 34131 ft | 457 kts | 349° |
| 2026-05-08 14:13 | 59.61613 | 38.23538 | 34130 ft | 457 kts | 349° |
| 2026-05-08 14:13 | 59.67972 | 38.23306 | 34146 ft | 458 kts | 349° |
| 2026-05-08 14:14 | 59.74346 | 38.23072 | 34136 ft | 458 kts | 349° |
| 2026-05-08 14:14 | 59.80710 | 38.22841 | 34130 ft | 457 kts | 349° |
| 2026-05-08 14:15 | 59.87052 | 38.22610 | 34132 ft | 456 kts | 349° |
| 2026-05-08 14:15 | 59.93387 | 38.22377 | 34131 ft | 455 kts | 349° |
| 2026-05-08 14:16 | 59.99723 | 38.22144 | 34134 ft | 455 kts | 349° |
| 2026-05-08 14:16 | 60.06071 | 38.21902 | 34141 ft | 458 kts | 350° |
| 2026-05-08 14:17 | 60.12453 | 38.21659 | 34130 ft | 459 kts | 350° |
| 2026-05-08 14:17 | 60.18843 | 38.21433 | 34135 ft | 459 kts | 350° |
| 2026-05-08 14:18 | 60.25227 | 38.21179 | 34135 ft | 459 kts | 349° |
| 2026-05-08 14:18 | 60.31590 | 38.20774 | 34129 ft | 456 kts | 349° |
| 2026-05-08 14:19 | 60.37925 | 38.20302 | 34139 ft | 455 kts | 349° |
| 2026-05-08 14:19 | 60.44302 | 38.19812 | 34145 ft | 462 kts | 350° |
| 2026-05-08 14:20 | 60.50732 | 38.19341 | 34138 ft | 463 kts | 350° |
| 2026-05-08 14:20 | 60.57165 | 38.18882 | 34143 ft | 463 kts | 350° |
| 2026-05-08 14:21 | 60.63600 | 38.18410 | 34141 ft | 462 kts | 350° |
| 2026-05-08 14:21 | 60.70029 | 38.17930 | 34140 ft | 463 kts | 350° |
| 2026-05-08 14:22 | 60.76464 | 38.17459 | 34198 ft | 463 kts | 351° |
| 2026-05-08 14:22 | 60.82940 | 38.16971 | 34150 ft | 468 kts | 351° |
| 2026-05-08 14:23 | 60.89450 | 38.16486 | 34146 ft | 468 kts | 351° |
| 2026-05-08 14:23 | 60.95964 | 38.16000 | 34152 ft | 468 kts | 351° |
| 2026-05-08 14:24 | 61.02476 | 38.15510 | 34153 ft | 468 kts | 351° |
| 2026-05-08 14:24 | 61.08984 | 38.15017 | 34157 ft | 468 kts | 351° |
| 2026-05-08 14:25 | 61.15494 | 38.14511 | 34200 ft | 469 kts | 351° |
| 2026-05-08 14:25 | 61.22036 | 38.14008 | 34165 ft | 470 kts | 351° |
| 2026-05-08 14:26 | 61.28572 | 38.13514 | 34165 ft | 470 kts | 351° |
| 2026-05-08 14:26 | 61.34047 | 38.13095 | 34164 ft | 470 kts | 351° |
| 2026-05-08 14:27 | 61.40584 | 38.12592 | 34166 ft | 470 kts | 351° |
| 2026-05-08 14:27 | 61.47123 | 38.12085 | 34169 ft | 470 kts | 351° |
| 2026-05-08 14:28 | 61.53656 | 38.11577 | 34211 ft | 470 kts | 351° |
| 2026-05-08 14:28 | 61.60219 | 38.11062 | 34171 ft | 473 kts | 352° |
| 2026-05-08 14:29 | 61.66797 | 38.10548 | 34181 ft | 472 kts | 352° |
| 2026-05-08 14:29 | 61.73336 | 38.10036 | 34176 ft | 470 kts | 352° |
| 2026-05-08 14:30 | 61.79864 | 38.09521 | 34176 ft | 470 kts | 352° |
| 2026-05-08 14:30 | 61.86401 | 38.09000 | 34175 ft | 470 kts | 352° |
| 2026-05-08 14:31 | 61.92930 | 38.08460 | 34204 ft | 470 kts | 351° |
| 2026-05-08 14:31 | 61.99341 | 38.06378 | 34183 ft | 464 kts | 342° |
| 2026-05-08 14:32 | 62.08744 | 38.01462 | 34178 ft | 463 kts | 341° |
| 2026-05-08 14:32 | 62.15018 | 37.98213 | 34184 ft | 464 kts | 341° |
| 2026-05-08 14:33 | 62.21304 | 37.95037 | 34178 ft | 464 kts | 341° |
| 2026-05-08 14:33 | 62.27591 | 37.91864 | 34178 ft | 464 kts | 341° |
| 2026-05-08 14:34 | 62.33872 | 37.88681 | 34184 ft | 464 kts | 341° |
| 2026-05-08 14:34 | 62.40164 | 37.85475 | 34192 ft | 466 kts | 341° |
| 2026-05-08 14:35 | 62.46484 | 37.82236 | 34190 ft | 467 kts | 341° |
| 2026-05-08 14:35 | 62.52777 | 37.79007 | 34182 ft | 464 kts | 341° |
| 2026-05-08 14:36 | 62.59049 | 37.75772 | 34179 ft | 463 kts | 341° |
| 2026-05-08 14:36 | 62.65310 | 37.72437 | 34183 ft | 462 kts | 340° |
| 2026-05-08 14:37 | 62.71475 | 37.68531 | 34185 ft | 461 kts | 338° |
| 2026-05-08 14:37 | 62.77608 | 37.64451 | 34188 ft | 461 kts | 338° |
| 2026-05-08 14:38 | 62.83747 | 37.60379 | 34194 ft | 461 kts | 339° |
| 2026-05-08 14:38 | 62.89876 | 37.56339 | 34194 ft | 459 kts | 339° |
| 2026-05-08 14:39 | 62.95991 | 37.52295 | 34184 ft | 459 kts | 339° |
| 2026-05-08 14:39 | 63.02105 | 37.48244 | 34186 ft | 459 kts | 339° |
| 2026-05-08 14:40 | 63.08218 | 37.44166 | 34196 ft | 458 kts | 338° |
| 2026-05-08 14:40 | 63.14324 | 37.40071 | 34197 ft | 459 kts | 338° |
| 2026-05-08 14:41 | 63.20428 | 37.35960 | 34208 ft | 458 kts | 339° |
| 2026-05-08 14:41 | 63.26516 | 37.31820 | 34197 ft | 457 kts | 338° |
| 2026-05-08 14:42 | 63.32571 | 37.27492 | 34210 ft | 458 kts | 338° |
| 2026-05-08 14:42 | 63.38648 | 37.23094 | 34206 ft | 460 kts | 338° |
| 2026-05-08 14:43 | 63.44707 | 37.18542 | 34205 ft | 459 kts | 337° |
| 2026-05-08 14:43 | 63.50733 | 37.13801 | 34216 ft | 459 kts | 336° |
| 2026-05-08 14:44 | 63.56755 | 37.09027 | 34222 ft | 459 kts | 337° |
| 2026-05-08 14:44 | 63.62749 | 37.04275 | 34217 ft | 457 kts | 337° |
| 2026-05-08 14:45 | 63.68745 | 36.99514 | 34219 ft | 457 kts | 337° |
| 2026-05-08 14:45 | 63.74738 | 36.94726 | 34222 ft | 457 kts | 336° |
| 2026-05-08 14:46 | 63.80728 | 36.89921 | 34229 ft | 457 kts | 336° |
| 2026-05-08 14:46 | 63.86735 | 36.85077 | 34233 ft | 460 kts | 337° |
| 2026-05-08 14:47 | 63.92597 | 36.80316 | 34233 ft | 460 kts | 337° |
| 2026-05-08 14:47 | 63.98146 | 36.75782 | 34230 ft | 458 kts | 337° |
| 2026-05-08 14:48 | 64.04142 | 36.70882 | 34230 ft | 458 kts | 337° |
| 2026-05-08 14:48 | 64.10112 | 36.65985 | 34236 ft | 458 kts | 337° |
| 2026-05-08 14:49 | 64.15428 | 36.61615 | 34232 ft | 458 kts | 337° |
| 2026-05-08 14:49 | 64.21124 | 36.56919 | 34238 ft | 458 kts | 337° |
| 2026-05-08 14:50 | 64.26082 | 36.52814 | 34235 ft | 458 kts | 336° |
| 2026-05-08 14:50 | 64.30142 | 36.49435 | 34240 ft | 457 kts | 336° |
| 2026-05-08 14:51 | 64.35045 | 36.45335 | 34237 ft | 458 kts | 337° |
| 2026-05-08 14:51 | 64.39662 | 36.41438 | 34238 ft | 459 kts | 337° |
| 2026-05-08 14:52 | 64.45379 | 36.36606 | 34242 ft | 459 kts | 337° |
| 2026-05-08 14:53 | 64.49608 | 36.33034 | 34247 ft | 459 kts | 337° |
| 2026-05-08 14:53 | 64.54495 | 36.28896 | 34243 ft | 459 kts | 337° |
| 2026-05-08 14:54 | 64.59906 | 36.24297 | 34239 ft | 458 kts | 337° |
| 2026-05-08 14:54 | 64.64344 | 36.20187 | 34255 ft | 457 kts | 333° |
| 2026-05-08 14:55 | 64.68779 | 36.15097 | 34243 ft | 454 kts | 330° |
| 2026-05-08 14:55 | 64.72090 | 36.11051 | 34245 ft | 454 kts | 329° |
| 2026-05-08 14:56 | 64.75283 | 36.07121 | 34250 ft | 454 kts | 330° |
| 2026-05-08 14:56 | 64.78903 | 36.02686 | 34250 ft | 455 kts | 330° |
| 2026-05-08 14:57 | 64.84173 | 35.96236 | 34249 ft | 454 kts | 330° |
| 2026-05-08 14:57 | 64.89789 | 35.89323 | 34265 ft | 457 kts | 330° |
| 2026-05-08 14:58 | 64.95429 | 35.82364 | 34258 ft | 458 kts | 330° |
| 2026-05-08 14:58 | 65.01057 | 35.75397 | 34256 ft | 455 kts | 330° |
| 2026-05-08 14:59 | 65.06518 | 35.67879 | 34260 ft | 453 kts | 326° |
| 2026-05-08 14:59 | 65.14448 | 35.55704 | 34260 ft | 453 kts | 325° |
| 2026-05-08 15:00 | 65.19742 | 35.47549 | 34265 ft | 453 kts | 325° |
| 2026-05-08 15:00 | 65.25017 | 35.39438 | 34265 ft | 453 kts | 325° |
| 2026-05-08 15:01 | 65.29081 | 35.33207 | 34269 ft | 453 kts | 325° |
| 2026-05-08 15:01 | 65.33212 | 35.26867 | 34265 ft | 452 kts | 325° |
| 2026-05-08 15:02 | 65.37314 | 35.20557 | 34264 ft | 452 kts | 325° |
| 2026-05-08 15:02 | 65.41200 | 35.14564 | 34268 ft | 452 kts | 325° |
| 2026-05-08 15:03 | 65.46485 | 35.06370 | 34265 ft | 452 kts | 325° |
| 2026-05-08 15:03 | 65.51798 | 34.98091 | 34270 ft | 453 kts | 325° |
| 2026-05-08 15:04 | 65.57068 | 34.89840 | 34269 ft | 455 kts | 325° |
| 2026-05-08 15:04 | 65.62371 | 34.81501 | 34264 ft | 455 kts | 325° |
| 2026-05-08 15:05 | 65.67670 | 34.73124 | 34263 ft | 455 kts | 325° |
| 2026-05-08 15:05 | 65.72965 | 34.64707 | 34258 ft | 455 kts | 324° |
| 2026-05-08 15:06 | 65.78258 | 34.56257 | 34261 ft | 455 kts | 324° |
| 2026-05-08 15:06 | 65.83543 | 34.47783 | 34269 ft | 455 kts | 324° |
| 2026-05-08 15:07 | 65.88818 | 34.39275 | 34256 ft | 454 kts | 324° |
| 2026-05-08 15:07 | 65.94067 | 34.30720 | 34259 ft | 453 kts | 324° |
| 2026-05-08 15:08 | 65.98447 | 34.23471 | 34268 ft | 453 kts | 324° |
| 2026-05-08 15:08 | 66.03640 | 34.14872 | 34267 ft | 453 kts | 324° |
| 2026-05-08 15:09 | 66.08861 | 34.06012 | 34269 ft | 453 kts | 323° |
| 2026-05-08 15:09 | 66.14035 | 33.97152 | 34265 ft | 453 kts | 323° |
| 2026-05-08 15:10 | 66.19217 | 33.88257 | 34261 ft | 454 kts | 323° |
| 2026-05-08 15:10 | 66.24408 | 33.79303 | 34262 ft | 455 kts | 323° |
| 2026-05-08 15:11 | 66.29594 | 33.70316 | 34260 ft | 455 kts | 323° |
| 2026-05-08 15:11 | 66.34778 | 33.61295 | 34277 ft | 454 kts | 323° |
| 2026-05-08 15:12 | 66.40405 | 33.54128 | 34269 ft | 458 kts | 339° |
| 2026-05-08 15:12 | 66.46577 | 33.49854 | 34257 ft | 461 kts | 343° |
| 2026-05-08 15:13 | 66.52747 | 33.45937 | 34267 ft | 460 kts | 342° |
| 2026-05-08 15:13 | 66.58915 | 33.41751 | 34274 ft | 459 kts | 342° |
| 2026-05-08 15:14 | 66.65064 | 33.37418 | 34257 ft | 458 kts | 341° |
| 2026-05-08 15:14 | 66.71209 | 33.33042 | 34268 ft | 460 kts | 342° |
| 2026-05-08 15:15 | 66.77371 | 33.28628 | 34260 ft | 461 kts | 342° |
| 2026-05-08 15:15 | 66.83546 | 33.24187 | 34259 ft | 461 kts | 342° |
| 2026-05-08 15:16 | 66.89718 | 33.19728 | 34260 ft | 461 kts | 341° |
| 2026-05-08 15:16 | 66.95886 | 33.15247 | 34259 ft | 460 kts | 341° |
| 2026-05-08 15:17 | 67.02035 | 33.10760 | 34260 ft | 460 kts | 341° |
| 2026-05-08 15:17 | 67.08189 | 33.06242 | 34260 ft | 460 kts | 341° |
| 2026-05-08 15:18 | 67.14335 | 33.01709 | 34260 ft | 460 kts | 341° |
| 2026-05-08 15:18 | 67.20491 | 32.97108 | 34262 ft | 462 kts | 341° |
| 2026-05-08 15:19 | 67.26661 | 32.92442 | 34261 ft | 463 kts | 341° |
| 2026-05-08 15:19 | 67.32843 | 32.87782 | 34261 ft | 463 kts | 341° |
| 2026-05-08 15:20 | 67.39017 | 32.83130 | 34263 ft | 461 kts | 341° |
| 2026-05-08 15:20 | 67.45213 | 32.78734 | 34260 ft | 463 kts | 348° |
| 2026-05-08 15:21 | 67.51656 | 32.77459 | 34263 ft | 466 kts | 356° |
| 2026-05-08 15:21 | 67.58151 | 32.77514 | 34269 ft | 467 kts | 357° |
| 2026-05-08 15:22 | 67.61395 | 32.77534 | 34067 ft | 466 kts | 357° |
| 2026-05-08 15:22 | 67.64635 | 32.77502 | 33081 ft | 463 kts | 357° |
| 2026-05-08 15:22 | 67.67832 | 32.77425 | 32183 ft | 457 kts | 357° |
| 2026-05-08 15:22 | 67.71000 | 32.77318 | 31304 ft | 453 kts | 357° |
| 2026-05-08 15:23 | 67.74148 | 32.77197 | 30470 ft | 451 kts | 357° |
| 2026-05-08 15:23 | 67.77282 | 32.77071 | 29439 ft | 450 kts | 357° |
| 2026-05-08 15:23 | 67.80414 | 32.76943 | 28630 ft | 451 kts | 357° |
| 2026-05-08 15:23 | 67.83560 | 32.76820 | 27927 ft | 453 kts | 357° |
| 2026-05-08 15:24 | 67.86714 | 32.76695 | 27265 ft | 454 kts | 357° |
| 2026-05-08 15:24 | 67.89874 | 32.76571 | 26617 ft | 453 kts | 357° |
| 2026-05-08 15:24 | 67.93012 | 32.76448 | 25965 ft | 448 kts | 358° |
| 2026-05-08 15:24 | 67.96106 | 32.76329 | 25367 ft | 442 kts | 358° |
| 2026-05-08 15:25 | 67.99162 | 32.76230 | 24739 ft | 437 kts | 358° |
| 2026-05-08 15:25 | 68.02190 | 32.76168 | 24080 ft | 432 kts | 358° |
| 2026-05-08 15:25 | 68.05171 | 32.76122 | 23337 ft | 426 kts | 358° |
| 2026-05-08 15:25 | 68.08108 | 32.76082 | 22622 ft | 420 kts | 358° |
| 2026-05-08 15:26 | 68.11012 | 32.76045 | 21974 ft | 414 kts | 358° |
| 2026-05-08 15:26 | 68.13871 | 32.76006 | 21330 ft | 408 kts | 358° |
| 2026-05-08 15:26 | 68.16695 | 32.75966 | 20703 ft | 403 kts | 358° |
| 2026-05-08 15:26 | 68.19482 | 32.75926 | 20095 ft | 398 kts | 357° |
| 2026-05-08 15:27 | 68.22231 | 32.75886 | 19482 ft | 393 kts | 357° |
| 2026-05-08 15:27 | 68.24945 | 32.75847 | 18869 ft | 388 kts | 357° |
| 2026-05-08 15:27 | 68.27631 | 32.75807 | 18239 ft | 383 kts | 357° |
| 2026-05-08 15:27 | 68.30272 | 32.75766 | 17605 ft | 378 kts | 357° |
| 2026-05-08 15:28 | 68.32883 | 32.75726 | 17014 ft | 373 kts | 357° |
| 2026-05-08 15:28 | 68.35466 | 32.75688 | 16434 ft | 368 kts | 357° |
| 2026-05-08 15:28 | 68.38013 | 32.75649 | 15891 ft | 364 kts | 357° |
| 2026-05-08 15:28 | 68.40541 | 32.75610 | 15331 ft | 362 kts | 357° |
| 2026-05-08 15:29 | 68.43047 | 32.75679 | 14777 ft | 359 kts | 359° |
| 2026-05-08 15:29 | 68.45530 | 32.75889 | 14253 ft | 355 kts | 359° |
| 2026-05-08 15:29 | 68.47983 | 32.76145 | 13698 ft | 351 kts | 360° |
| 2026-05-08 15:29 | 68.50398 | 32.76434 | 13179 ft | 345 kts | 2° |
| 2026-05-08 15:30 | 68.52756 | 32.77931 | 12928 ft | 349 kts | 17° |
| 2026-05-08 15:30 | 68.54906 | 32.80531 | 12849 ft | 329 kts | 22° |
| 2026-05-08 15:30 | 68.56890 | 32.83327 | 12740 ft | 312 kts | 24° |
| 2026-05-08 15:30 | 68.58755 | 32.86030 | 12624 ft | 292 kts | 24° |
| 2026-05-08 15:31 | 68.60491 | 32.88761 | 11906 ft | 288 kts | 32° |
| 2026-05-08 15:31 | 68.61916 | 32.92638 | 11108 ft | 290 kts | 48° |
| 2026-05-08 15:31 | 68.63094 | 32.97134 | 10337 ft | 289 kts | 53° |
| 2026-05-08 15:31 | 68.64359 | 33.01164 | 9513 ft | 274 kts | 32° |
| 2026-05-08 15:32 | 68.66057 | 33.03201 | 7969 ft | 269 kts | 4° |
| 2026-05-08 15:32 | 68.67890 | 33.02539 | 6442 ft | 269 kts | 332° |
| 2026-05-08 15:32 | 68.69280 | 32.99472 | 5495 ft | 248 kts | 309° |
| 2026-05-08 15:32 | 68.70151 | 32.95494 | 4171 ft | 239 kts | 294° |
| 2026-05-08 15:33 | 68.70768 | 32.91284 | 2772 ft | 236 kts | 295° |
| 2026-05-08 15:33 | 68.71666 | 32.87753 | 1922 ft | 221 kts | 314° |
| 2026-05-08 15:33 | 68.72786 | 32.85010 | 1530 ft | 207 kts | 323° |
| 2026-05-08 15:33 | 68.73957 | 32.82924 | 989 ft | 190 kts | 329° |
| 2026-05-08 15:34 | 68.74981 | 32.81042 | 752 ft | 164 kts | 324° |
| 2026-05-08 15:34 | 68.75903 | 32.79337 | 591 ft | 159 kts | 328° |
| 2026-05-08 15:34 | 68.76824 | 32.77678 | 388 ft | 158 kts | 327° |
| 2026-05-08 15:34 | 68.77709 | 32.76059 | 280 ft | 136 kts | 326° |
| 2026-05-08 15:35 | 68.78327 | 32.74921 | 283 ft | 78 kts | 327° |
| 2026-05-08 15:35 | 68.78648 | 32.74329 | 282 ft | 46 kts | 326° |